Jonkoping Airport

Airport
ICAO code: 
ESGJ
Summary
ICAO Region: 
EUR
Territory: 
Location: 
Jonkoping, Sweden,
Coordinates: 
Aerial View: 
57° 45' 29.999" N, 14° 4' 9.001" E
Metar
Observation
ESGJ 260750Z AUTO 23013KT 9999 FEW017/// SCT025/// BKN190/// 11/10 Q1002
Station
Jonkoping Flygplats
Date/Time
2022-05-26 07:50:00
Wind direction
230°
Wind speed
13 kts
Lowest cloud amount
few clouds
Temperature
11°C
Dew point
10°C
Humidity
93%
QNH
1002 hPa
Weather condition
n/a

Description

International airport serving Jonkoping, south central Sweden.

Climatology

Humid Continental climate (Köppen climate classification Dfb) - Variable weather patterns and a large seasonal temperature variance. Summers are often warm and humid with frequent thunderstorms and winters can be very cold with frequent snowfall and persistent snow cover.

Runways

Designator Length Width Surface Rops
11/29 600 25 GRE No/No
1/19 2203 45 ASP Yes/Yes
Airport map: 
Aerial View: 

SKYbrary Partners:

Safety knowledge contributed by: